createdAt,value
2022-09-03T04:00:26.482Z,0.00
2022-09-03T04:01:26.545Z,0.00
2022-09-03T04:02:26.546Z,0.00
2022-09-03T04:03:26.415Z,0.00
2022-09-03T04:04:26.404Z,0.00
2022-09-03T04:05:26.395Z,0.00
2022-09-03T04:06:26.383Z,0.00
2022-09-03T04:07:26.387Z,0.00
2022-09-03T04:08:26.358Z,0.00
2022-09-03T04:09:26.346Z,0.00
2022-09-03T04:10:26.347Z,0.00
2022-09-03T04:11:31.367Z,0.00
2022-09-03T04:12:26.314Z,0.00
2022-09-03T04:13:26.305Z,0.00
2022-09-03T04:14:26.293Z,0.00
2022-09-03T04:15:26.287Z,0.00
2022-09-03T04:16:26.344Z,0.00
2022-09-03T04:17:26.267Z,0.00
2022-09-03T04:18:26.248Z,0.00
2022-09-03T04:19:26.245Z,0.00
2022-09-03T04:20:26.224Z,0.00
2022-09-03T04:21:28.336Z,0.00
2022-09-03T04:22:31.251Z,0.00
2022-09-03T04:23:26.187Z,0.00
2022-09-03T04:24:26.179Z,0.00
2022-09-03T04:25:26.171Z,0.00
2022-09-03T04:26:26.164Z,0.00
2022-09-03T04:27:26.153Z,0.00
2022-09-03T04:28:26.230Z,0.00
2022-09-03T04:29:26.118Z,0.00
2022-09-03T04:30:26.182Z,0.00
2022-09-03T04:31:26.097Z,0.00
2022-09-03T04:32:26.101Z,0.00
2022-09-03T04:33:31.098Z,0.00
2022-09-03T04:34:26.068Z,0.00
2022-09-03T04:35:26.052Z,0.00
2022-09-03T04:36:26.045Z,0.00
2022-09-03T04:37:26.059Z,0.00
2022-09-03T04:38:26.020Z,0.00
2022-09-03T04:39:26.084Z,0.00
2022-09-03T04:40:26.010Z,0.00
2022-09-03T04:41:25.987Z,0.00
2022-09-03T04:42:25.983Z,0.00
2022-09-03T04:43:25.958Z,0.00
2022-09-03T04:44:30.970Z,0.00
2022-09-03T04:45:25.945Z,0.00
2022-09-03T04:46:26.039Z,0.00
2022-09-03T04:47:25.941Z,0.00
2022-09-03T04:48:25.907Z,0.00
2022-09-03T04:49:25.890Z,0.00
2022-09-03T04:50:25.878Z,0.00
2022-09-03T04:51:25.875Z,0.00
2022-09-03T04:52:25.867Z,0.00
2022-09-03T04:53:25.847Z,0.00
2022-09-03T04:54:29.262Z,0.00
2022-09-03T04:55:30.843Z,0.00
2022-09-03T04:56:25.818Z,0.00
2022-09-03T04:57:25.821Z,0.00
2022-09-03T04:58:25.791Z,0.00
2022-09-03T04:59:25.776Z,0.00
2022-09-03T05:00:25.766Z,0.00
2022-09-03T05:01:25.865Z,0.00
2022-09-03T05:02:25.836Z,0.00
2022-09-03T05:03:25.730Z,0.00
2022-09-03T05:04:25.721Z,0.00
2022-09-03T05:05:25.713Z,0.00
2022-09-03T05:06:30.737Z,0.00
2022-09-03T05:07:25.691Z,0.00
2022-09-03T05:08:25.725Z,0.00
2022-09-03T05:09:25.666Z,0.00
2022-09-03T05:10:25.656Z,0.00
2022-09-03T05:11:25.670Z,0.00
2022-09-03T05:12:25.631Z,0.00
2022-09-03T05:13:25.621Z,0.00
2022-09-03T05:14:25.611Z,0.00
2022-09-03T05:15:25.597Z,0.00
2022-09-03T05:16:25.647Z,0.00
2022-09-03T05:17:30.596Z,0.00
2022-09-03T05:18:25.578Z,5.62
2022-09-03T05:19:25.551Z,5.62
2022-09-03T05:20:25.542Z,5.62
2022-09-03T05:21:25.541Z,5.62
2022-09-03T05:22:25.521Z,5.62
2022-09-03T05:23:25.508Z,5.62
2022-09-03T05:24:25.497Z,5.62
2022-09-03T05:25:25.486Z,5.62
2022-09-03T05:26:25.487Z,5.62
2022-09-03T05:27:25.477Z,5.62
2022-09-03T05:28:30.473Z,11.25
2022-09-03T05:29:25.439Z,11.25
2022-09-03T05:30:25.430Z,11.25
2022-09-03T05:31:25.477Z,11.25
2022-09-03T05:32:25.413Z,11.25
2022-09-03T05:33:25.400Z,11.25
2022-09-03T05:34:25.384Z,11.25
2022-09-03T05:35:26.134Z,11.25
2022-09-03T05:36:25.362Z,11.25
2022-09-03T05:37:25.362Z,11.25
2022-09-03T05:38:25.373Z,11.25
2022-09-03T05:39:30.424Z,11.25
2022-09-03T05:40:25.425Z,16.88
2022-09-03T05:41:25.417Z,16.88
2022-09-03T05:42:25.310Z,16.88
2022-09-03T05:43:25.283Z,16.88
2022-09-03T05:44:25.272Z,16.88
2022-09-03T05:45:25.327Z,22.50
2022-09-03T05:46:25.251Z,22.50
2022-09-03T05:47:25.249Z,22.50
2022-09-03T05:48:25.347Z,22.50
2022-09-03T05:49:25.215Z,28.12
2022-09-03T05:50:30.242Z,28.12
2022-09-03T05:51:25.198Z,33.75
2022-09-03T05:52:25.198Z,33.75
2022-09-03T05:53:25.415Z,33.75
2022-09-03T05:54:25.165Z,33.75
2022-09-03T05:55:25.146Z,33.75
2022-09-03T05:56:25.159Z,33.75
2022-09-03T05:57:25.138Z,33.75
2022-09-03T05:58:25.115Z,33.75
2022-09-03T05:59:25.100Z,33.75
2022-09-03T06:00:25.088Z,33.75
2022-09-03T06:01:30.123Z,33.75
2022-09-03T06:02:25.190Z,33.75
2022-09-03T06:03:25.355Z,33.75
2022-09-03T06:04:25.047Z,39.38
2022-09-03T06:05:25.030Z,45.00
2022-09-03T06:06:25.021Z,50.62
2022-09-03T06:07:25.021Z,50.62
2022-09-03T06:08:24.998Z,56.25
2022-09-03T06:09:24.985Z,56.25
2022-09-03T06:10:28.006Z,61.88
2022-09-03T06:11:25.963Z,61.88
2022-09-03T06:12:29.993Z,61.88
2022-09-03T06:13:25.150Z,61.88
2022-09-03T06:14:24.928Z,61.88
2022-09-03T06:15:24.917Z,61.88
2022-09-03T06:16:30.737Z,56.25
2022-09-03T06:17:25.903Z,50.62
2022-09-03T06:18:25.021Z,45.00
2022-09-03T06:19:24.870Z,39.38
2022-09-03T06:20:24.865Z,33.75
2022-09-03T06:21:24.856Z,33.75
2022-09-03T06:22:24.854Z,28.12
2022-09-03T06:23:29.847Z,28.12
2022-09-03T06:24:26.551Z,28.12
2022-09-03T06:25:24.803Z,22.50
2022-09-03T06:26:24.792Z,22.50
2022-09-03T06:27:24.793Z,22.50
2022-09-03T06:28:24.910Z,16.88
2022-09-03T06:29:24.765Z,16.88
2022-09-03T06:30:24.747Z,16.88
2022-09-03T06:31:24.848Z,16.88
2022-09-03T06:32:24.732Z,16.88
2022-09-03T06:33:24.875Z,16.88
2022-09-03T06:34:29.722Z,16.88
2022-09-03T06:35:24.689Z,22.50
2022-09-03T06:36:24.679Z,22.50
2022-09-03T06:37:24.679Z,22.50
2022-09-03T06:38:24.788Z,28.12
2022-09-03T06:39:24.748Z,28.12
2022-09-03T06:40:24.632Z,33.75
2022-09-03T06:41:24.622Z,39.38
2022-09-03T06:42:24.620Z,50.62
2022-09-03T06:43:24.599Z,50.62
2022-09-03T06:44:24.609Z,56.25
2022-09-03T06:45:29.642Z,56.25
2022-09-03T06:46:24.567Z,50.62
2022-09-03T06:47:24.567Z,45.00
2022-09-03T06:48:24.655Z,45.00
2022-09-03T06:49:24.532Z,39.38
2022-09-03T06:50:24.561Z,39.38
2022-09-03T06:51:24.523Z,39.38
2022-09-03T06:52:24.499Z,39.38
2022-09-03T06:53:24.489Z,39.38
2022-09-03T06:54:25.474Z,45.00
2022-09-03T06:55:24.464Z,45.00
2022-09-03T06:56:29.485Z,50.62
2022-09-03T06:57:24.444Z,56.25
2022-09-03T06:58:24.487Z,61.88
2022-09-03T06:59:24.420Z,67.50
2022-09-03T07:00:24.405Z,73.12
2022-09-03T07:01:24.546Z,73.12
2022-09-03T07:02:24.493Z,78.75
2022-09-03T07:03:24.372Z,78.75
2022-09-03T07:04:24.360Z,78.75
2022-09-03T07:05:24.349Z,73.12
2022-09-03T07:06:24.338Z,67.50
2022-09-03T07:07:29.360Z,61.88
2022-09-03T07:08:24.435Z,50.62
2022-09-03T07:09:24.307Z,45.00
2022-09-03T07:10:24.293Z,39.38
2022-09-03T07:11:24.282Z,33.75
2022-09-03T07:12:24.285Z,28.12
2022-09-03T07:13:24.260Z,28.12
2022-09-03T07:14:24.245Z,22.50
2022-09-03T07:15:24.238Z,22.50
2022-09-03T07:16:24.298Z,28.12
2022-09-03T07:17:24.213Z,28.12
2022-09-03T07:18:29.224Z,33.75
2022-09-03T07:19:24.190Z,33.75
2022-09-03T07:20:24.179Z,39.38
2022-09-03T07:21:24.178Z,39.38
2022-09-03T07:22:24.357Z,45.00
2022-09-03T07:23:25.149Z,50.62
2022-09-03T07:24:24.133Z,56.25
2022-09-03T07:25:24.123Z,61.88
2022-09-03T07:26:24.124Z,67.50
2022-09-03T07:27:24.101Z,67.50
2022-09-03T07:28:24.247Z,73.12
2022-09-03T07:29:29.100Z,78.75
2022-09-03T07:30:24.067Z,78.75
2022-09-03T07:31:24.134Z,84.38
2022-09-03T07:32:24.042Z,84.38
2022-09-03T07:33:24.060Z,78.75
2022-09-03T07:34:24.029Z,78.75
2022-09-03T07:35:24.011Z,78.75
2022-09-03T07:36:24.038Z,78.75
2022-09-03T07:37:23.998Z,78.75
2022-09-03T07:38:24.125Z,73.12
2022-09-03T07:39:24.017Z,73.12
2022-09-03T07:40:28.978Z,67.50
2022-09-03T07:41:28.341Z,56.25
2022-09-03T07:42:23.930Z,50.62
2022-09-03T07:43:23.918Z,45.00
2022-09-03T07:44:23.907Z,39.38
2022-09-03T07:45:23.902Z,39.38
2022-09-03T07:46:23.947Z,33.75
2022-09-03T07:47:27.047Z,39.38
2022-09-03T07:48:24.000Z,39.38
2022-09-03T07:49:23.857Z,39.38
2022-09-03T07:50:23.841Z,39.38
2022-09-03T07:51:29.070Z,45.00
2022-09-03T07:52:23.818Z,45.00
2022-09-03T07:53:23.871Z,45.00
2022-09-03T07:54:23.812Z,45.00
2022-09-03T07:55:23.783Z,45.00
2022-09-03T07:56:23.770Z,50.62
2022-09-03T07:57:23.777Z,50.62
2022-09-03T07:58:23.866Z,50.62
2022-09-03T07:59:23.749Z,45.00
2022-09-03T08:00:23.753Z,39.38
2022-09-03T08:01:23.719Z,39.38
2022-09-03T08:02:28.737Z,33.75
2022-09-03T08:03:23.729Z,33.75
2022-09-03T08:04:23.681Z,33.75
2022-09-03T08:05:23.713Z,33.75
2022-09-03T08:06:23.798Z,33.75
2022-09-03T08:07:23.672Z,33.75
2022-09-03T08:08:23.635Z,33.75
2022-09-03T08:09:23.625Z,33.75
2022-09-03T08:10:23.768Z,33.75
2022-09-03T08:11:23.603Z,33.75
2022-09-03T08:12:23.751Z,33.75
2022-09-03T08:13:28.676Z,33.75
2022-09-03T08:14:23.571Z,33.75
2022-09-03T08:15:23.560Z,33.75
2022-09-03T08:16:23.633Z,33.75
2022-09-03T08:17:23.537Z,33.75
2022-09-03T08:18:23.787Z,33.75
2022-09-03T08:19:23.548Z,33.75
2022-09-03T08:20:23.532Z,33.75
2022-09-03T08:21:23.490Z,33.75
2022-09-03T08:22:23.490Z,33.75
2022-09-03T08:23:23.508Z,39.38
2022-09-03T08:24:28.474Z,39.38
2022-09-03T08:25:23.443Z,39.38
2022-09-03T08:26:23.431Z,45.00
2022-09-03T08:27:23.640Z,45.00
2022-09-03T08:28:23.548Z,50.62
2022-09-03T08:29:23.399Z,50.62
2022-09-03T08:30:23.383Z,50.62
2022-09-03T08:31:23.493Z,56.25
2022-09-03T08:32:23.362Z,56.25
2022-09-03T08:33:23.494Z,56.25
2022-09-03T08:34:23.348Z,56.25
2022-09-03T08:35:28.360Z,56.25
2022-09-03T08:36:23.332Z,56.25
2022-09-03T08:37:23.330Z,61.88
2022-09-03T08:38:23.398Z,61.88
2022-09-03T08:39:23.306Z,61.88
2022-09-03T08:40:23.266Z,67.50
2022-09-03T08:41:23.273Z,73.12
2022-09-03T08:42:23.247Z,73.12
2022-09-03T08:43:23.232Z,67.50
2022-09-03T08:44:23.219Z,61.88
2022-09-03T08:45:23.209Z,61.88
2022-09-03T08:46:28.276Z,56.25
2022-09-03T08:47:23.192Z,73.12
2022-09-03T08:48:25.863Z,90.00
2022-09-03T08:49:23.164Z,90.00
2022-09-03T08:50:23.191Z,78.75
2022-09-03T08:51:23.186Z,73.12
2022-09-03T08:52:23.126Z,73.12
2022-09-03T08:53:23.122Z,73.12
2022-09-03T08:54:23.132Z,73.12
2022-09-03T08:55:23.099Z,67.50
2022-09-03T08:56:23.137Z,61.88
2022-09-03T08:57:28.098Z,61.88
2022-09-03T08:58:23.124Z,61.88
2022-09-03T08:59:23.128Z,61.88
2022-09-03T09:00:24.067Z,67.50
2022-09-03T09:01:23.062Z,73.12
2022-09-03T09:02:23.116Z,78.75
2022-09-03T09:03:23.000Z,78.75
2022-09-03T09:04:22.988Z,78.75
2022-09-03T09:05:22.980Z,73.12
2022-09-03T09:06:22.980Z,73.12
2022-09-03T09:07:22.957Z,73.12
2022-09-03T09:08:27.961Z,67.50
2022-09-03T09:09:22.930Z,61.88
2022-09-03T09:10:22.925Z,56.25
2022-09-03T09:11:22.919Z,50.62
2022-09-03T09:12:22.911Z,45.00
2022-09-03T09:13:22.884Z,39.38
2022-09-03T09:14:22.881Z,39.38
2022-09-03T09:15:22.865Z,45.00
2022-09-03T09:16:22.881Z,50.62
2022-09-03T09:17:22.857Z,56.25
2022-09-03T09:18:22.871Z,61.88
2022-09-03T09:19:27.843Z,61.88
2022-09-03T09:20:22.809Z,61.88
2022-09-03T09:21:27.384Z,67.50
2022-09-03T09:22:22.791Z,90.00
2022-09-03T09:23:22.771Z,118.12
2022-09-03T09:24:22.758Z,151.88
2022-09-03T09:25:22.747Z,180.00
2022-09-03T09:26:22.757Z,196.88
2022-09-03T09:27:22.727Z,202.50
2022-09-03T09:28:22.833Z,219.38
2022-09-03T09:29:22.703Z,219.38
2022-09-03T09:30:27.710Z,225.00
2022-09-03T09:31:22.747Z,236.25
2022-09-03T09:32:22.697Z,253.12
2022-09-03T09:33:22.664Z,253.12
2022-09-03T09:34:22.643Z,258.75
2022-09-03T09:35:22.646Z,264.38
2022-09-03T09:36:22.633Z,286.88
2022-09-03T09:37:22.615Z,275.62
2022-09-03T09:38:22.598Z,253.12
2022-09-03T09:39:22.676Z,247.50
2022-09-03T09:40:22.584Z,320.62
2022-09-03T09:41:29.958Z,399.38
2022-09-03T09:42:22.552Z,337.50
2022-09-03T09:43:22.543Z,348.75
2022-09-03T09:44:22.533Z,303.75
2022-09-03T09:45:22.547Z,292.50
2022-09-03T09:46:22.611Z,298.12
2022-09-03T09:47:22.497Z,286.88
2022-09-03T09:48:22.559Z,292.50
2022-09-03T09:49:22.476Z,281.25
2022-09-03T09:50:25.043Z,270.00
2022-09-03T09:51:22.487Z,253.12
2022-09-03T09:52:27.467Z,241.88
2022-09-03T09:53:22.428Z,230.62
2022-09-03T09:54:22.415Z,253.12
2022-09-03T09:55:22.414Z,230.62
2022-09-03T09:56:22.428Z,230.62
2022-09-03T09:57:22.385Z,236.25
2022-09-03T09:58:22.370Z,326.25
2022-09-03T09:59:22.361Z,258.75
2022-09-03T10:00:22.348Z,315.00
2022-09-03T10:01:22.427Z,298.12
2022-09-03T10:02:22.721Z,292.50
2022-09-03T10:03:27.337Z,208.12
2022-09-03T10:04:22.316Z,253.12
2022-09-03T10:05:22.297Z,376.88
2022-09-03T10:06:22.290Z,348.75
2022-09-03T10:07:22.270Z,298.12
2022-09-03T10:08:22.362Z,500.62
2022-09-03T10:09:22.259Z,360.00
2022-09-03T10:10:23.237Z,264.38
2022-09-03T10:11:22.238Z,270.00
2022-09-03T10:12:22.216Z,275.62
2022-09-03T10:13:22.204Z,298.12
2022-09-03T10:14:27.212Z,455.62
2022-09-03T10:15:22.183Z,1546.88
2022-09-03T10:16:22.252Z,871.88
2022-09-03T10:17:22.158Z,427.50
2022-09-03T10:18:26.031Z,658.12
2022-09-03T10:19:22.138Z,933.75
2022-09-03T10:20:22.121Z,669.38
2022-09-03T10:21:22.123Z,191.25
2022-09-03T10:22:22.101Z,225.00
2022-09-03T10:23:22.101Z,219.38
2022-09-03T10:24:22.076Z,225.00
2022-09-03T10:25:27.094Z,208.12
2022-09-03T10:26:22.066Z,219.38
2022-09-03T10:27:22.043Z,219.38
2022-09-03T10:28:22.036Z,213.75
2022-09-03T10:29:22.025Z,208.12
2022-09-03T10:30:22.008Z,202.50
2022-09-03T10:31:22.034Z,230.62
2022-09-03T10:32:21.984Z,331.88
2022-09-03T10:33:21.983Z,264.38
2022-09-03T10:34:21.961Z,388.12
2022-09-03T10:35:21.955Z,759.38
2022-09-03T10:36:26.971Z,1226.25
2022-09-03T10:37:21.933Z,703.12
2022-09-03T10:38:21.920Z,1749.38
2022-09-03T10:39:21.934Z,697.50
2022-09-03T10:40:21.895Z,658.12
2022-09-03T10:41:21.898Z,450.00
2022-09-03T10:42:21.892Z,365.62
2022-09-03T10:43:21.860Z,562.50
2022-09-03T10:44:21.851Z,641.25
2022-09-03T10:45:21.839Z,742.50
2022-09-03T10:46:24.149Z,540.00
2022-09-03T10:47:26.835Z,1293.75
2022-09-03T10:48:21.913Z,1085.62
2022-09-03T10:49:21.791Z,540.00
2022-09-03T10:50:21.785Z,905.62
2022-09-03T10:51:21.780Z,523.12
2022-09-03T10:52:21.762Z,354.38
2022-09-03T10:53:21.746Z,309.38
2022-09-03T10:54:21.736Z,348.75
2022-09-03T10:55:21.722Z,236.25
2022-09-03T10:56:21.724Z,258.75
2022-09-03T10:57:21.711Z,331.88
2022-09-03T10:58:26.747Z,354.38
2022-09-03T10:59:25.050Z,393.75
2022-09-03T11:00:22.671Z,500.62
2022-09-03T11:01:21.753Z,236.25
2022-09-03T11:02:21.747Z,191.25
2022-09-03T11:03:21.633Z,241.88
2022-09-03T11:04:21.622Z,202.50
2022-09-03T11:05:21.610Z,180.00
2022-09-03T11:06:21.617Z,174.38
2022-09-03T11:07:21.587Z,180.00
2022-09-03T11:08:21.583Z,185.62
2022-09-03T11:09:26.627Z,185.62
2022-09-03T11:10:21.554Z,230.62
2022-09-03T11:11:21.552Z,219.38
2022-09-03T11:12:21.541Z,264.38
2022-09-03T11:13:21.519Z,225.00
2022-09-03T11:14:21.511Z,208.12
2022-09-03T11:15:25.166Z,241.88
2022-09-03T11:16:22.563Z,315.00
2022-09-03T11:17:21.504Z,247.50
2022-09-03T11:18:21.473Z,219.38
2022-09-03T11:19:21.452Z,180.00
2022-09-03T11:20:26.463Z,202.50
2022-09-03T11:21:21.439Z,275.62
2022-09-03T11:22:21.425Z,686.25
2022-09-03T11:23:21.423Z,545.62
2022-09-03T11:24:21.397Z,438.75
2022-09-03T11:25:21.385Z,348.75
2022-09-03T11:26:21.393Z,326.25
2022-09-03T11:27:21.367Z,354.38
2022-09-03T11:28:21.352Z,365.62
2022-09-03T11:29:21.340Z,331.88
2022-09-03T11:30:21.335Z,292.50
2022-09-03T11:31:26.428Z,326.25
2022-09-03T11:32:21.308Z,343.12
2022-09-03T11:33:21.292Z,877.50
2022-09-03T11:34:32.249Z,973.12
2022-09-03T11:35:22.276Z,1276.88
2022-09-03T11:36:21.276Z,1597.50
2022-09-03T11:37:21.251Z,2098.12
2022-09-03T11:38:21.238Z,2795.62
2022-09-03T11:39:21.236Z,1288.12
2022-09-03T11:40:21.218Z,601.88
2022-09-03T11:41:21.215Z,697.50
2022-09-03T11:42:26.218Z,1164.38
2022-09-03T11:43:21.185Z,978.75
2022-09-03T11:44:21.172Z,331.88
2022-09-03T11:45:21.159Z,388.12
2022-09-03T11:46:21.251Z,258.75
2022-09-03T11:47:21.134Z,337.50
2022-09-03T11:48:21.125Z,281.25
2022-09-03T11:49:21.112Z,303.75
2022-09-03T11:50:21.389Z,264.38
2022-09-03T11:51:21.254Z,236.25
2022-09-03T11:52:21.081Z,219.38
2022-09-03T11:53:26.203Z,275.62
2022-09-03T11:54:21.108Z,343.12
2022-09-03T11:55:21.049Z,365.62
2022-09-03T11:56:21.036Z,360.00
2022-09-03T11:57:21.031Z,399.38
2022-09-03T11:58:21.018Z,315.00
2022-09-03T11:59:20.998Z,410.62
2022-09-03T12:00:20.988Z,652.50
2022-09-03T12:01:20.979Z,466.88
2022-09-03T12:02:21.024Z,883.12
2022-09-03T12:03:20.951Z,331.88
2022-09-03T12:04:26.078Z,911.25
2022-09-03T12:05:20.929Z,427.50
2022-09-03T12:06:20.919Z,2536.88
2022-09-03T12:07:20.924Z,3217.50
2022-09-03T12:08:20.896Z,3116.25
2022-09-03T12:09:20.895Z,3009.38
2022-09-03T12:10:20.884Z,3065.62
2022-09-03T12:11:20.861Z,3076.88
2022-09-03T12:12:20.865Z,3003.75
2022-09-03T12:13:20.847Z,3195.00
2022-09-03T12:14:20.829Z,3060.00
2022-09-03T12:15:25.845Z,2812.50
2022-09-03T12:16:20.857Z,2953.12
2022-09-03T12:17:20.811Z,3313.12
2022-09-03T12:18:20.787Z,2120.62
2022-09-03T12:19:20.772Z,495.00
2022-09-03T12:20:20.765Z,3043.12
2022-09-03T12:21:20.751Z,3116.25
2022-09-03T12:22:20.751Z,3110.62
2022-09-03T12:23:20.728Z,3037.50
2022-09-03T12:24:20.720Z,2160.00
2022-09-03T12:25:20.707Z,2947.50
2022-09-03T12:26:25.723Z,1012.50
2022-09-03T12:27:20.721Z,1119.38
2022-09-03T12:28:20.699Z,3138.75
2022-09-03T12:29:20.670Z,3003.75
2022-09-03T12:30:20.657Z,3116.25
2022-09-03T12:31:20.676Z,3189.38
2022-09-03T12:32:20.645Z,3093.75
2022-09-03T12:33:20.619Z,3155.62
2022-09-03T12:34:20.611Z,3088.12
2022-09-03T12:36:21.590Z,2396.25
2022-09-03T12:38:04.356Z,2835.00
2022-09-03T12:38:21.569Z,2958.75
2022-09-03T12:40:21.764Z,2362.50
2022-09-03T12:41:26.697Z,1704.38
2022-09-03T12:42:21.536Z,1591.88
2022-09-03T12:43:50.373Z,2171.25
2022-09-03T12:44:21.500Z,2868.75
2022-09-03T12:45:20.493Z,1282.50
2022-09-03T12:46:20.509Z,1288.12
2022-09-03T12:47:37.437Z,579.38
2022-09-03T12:48:22.384Z,1355.62
2022-09-03T12:49:35.697Z,2587.50
2022-09-03T12:50:21.437Z,2941.88
2022-09-03T12:52:26.452Z,2238.75
2022-09-03T12:53:20.425Z,630.00
2022-09-03T12:54:20.418Z,270.00
2022-09-03T12:55:20.387Z,241.88
2022-09-03T12:56:20.395Z,241.88
2022-09-03T12:57:20.359Z,230.62
2022-09-03T12:58:20.351Z,236.25
2022-09-03T12:59:20.362Z,191.25
2022-09-03T13:00:20.331Z,196.88
2022-09-03T13:01:20.493Z,191.25
2022-09-03T13:02:20.407Z,191.25
2022-09-03T13:03:20.360Z,196.88
2022-09-03T13:04:20.286Z,213.75
2022-09-03T13:05:25.297Z,230.62
2022-09-03T13:06:20.289Z,230.62
2022-09-03T13:07:20.285Z,241.88
2022-09-03T13:08:20.243Z,253.12
2022-09-03T13:09:20.229Z,270.00
2022-09-03T13:10:20.219Z,286.88
2022-09-03T13:11:20.212Z,309.38
2022-09-03T13:12:20.212Z,315.00
2022-09-03T13:13:20.185Z,292.50
2022-09-03T13:14:20.174Z,315.00
2022-09-03T13:15:20.168Z,303.75
2022-09-03T13:16:20.244Z,292.50
2022-09-03T13:17:20.149Z,270.00
2022-09-03T13:18:25.155Z,275.62
2022-09-03T13:19:20.120Z,286.88
2022-09-03T13:20:20.107Z,270.00
2022-09-03T13:21:20.117Z,258.75
2022-09-03T13:22:20.105Z,275.62
2022-09-03T13:23:20.150Z,225.00
2022-09-03T13:24:20.074Z,174.38
2022-09-03T13:25:20.054Z,157.50
2022-09-03T13:26:20.046Z,123.75
2022-09-03T13:27:20.041Z,118.12
2022-09-03T13:28:20.036Z,123.75
2022-09-03T13:29:25.043Z,140.62
2022-09-03T13:30:20.014Z,168.75
2022-09-03T13:31:20.067Z,185.62
2022-09-03T13:32:19.988Z,191.25
2022-09-03T13:33:20.035Z,202.50
2022-09-03T13:34:19.954Z,202.50
2022-09-03T13:35:19.951Z,191.25
2022-09-03T13:36:19.941Z,196.88
2022-09-03T13:37:19.927Z,174.38
2022-09-03T13:38:19.913Z,163.12
2022-09-03T13:39:19.951Z,180.00
2022-09-03T13:40:24.907Z,219.38
2022-09-03T13:41:19.876Z,230.62
2022-09-03T13:42:19.882Z,185.62
2022-09-03T13:43:19.866Z,191.25
2022-09-03T13:44:19.843Z,146.25
2022-09-03T13:45:19.829Z,129.38
2022-09-03T13:46:19.864Z,146.25
2022-09-03T13:47:19.822Z,168.75
2022-09-03T13:48:19.796Z,163.12
2022-09-03T13:49:19.784Z,185.62
2022-09-03T13:50:19.774Z,202.50
2022-09-03T13:51:24.789Z,230.62
2022-09-03T13:52:19.763Z,230.62
2022-09-03T13:53:19.751Z,253.12
2022-09-03T13:54:42.497Z,253.12
2022-09-03T13:55:20.715Z,253.12
2022-09-03T13:56:19.706Z,241.88
2022-09-03T13:57:20.226Z,225.00
2022-09-03T13:58:19.684Z,196.88
2022-09-03T13:59:19.672Z,196.88
2022-09-03T14:00:19.663Z,168.75
2022-09-03T14:01:19.698Z,140.62
2022-09-03T14:02:24.726Z,112.50
2022-09-03T14:03:19.666Z,95.62
2022-09-03T14:04:19.628Z,84.38
2022-09-03T14:05:19.602Z,73.12
2022-09-03T14:06:19.597Z,73.12
2022-09-03T14:07:19.606Z,73.12
2022-09-03T14:08:19.576Z,78.75
2022-09-03T14:09:19.563Z,90.00
2022-09-03T14:10:19.548Z,101.25
2022-09-03T14:11:19.536Z,84.38
2022-09-03T14:12:19.576Z,73.12
2022-09-03T14:13:24.578Z,78.75
2022-09-03T14:14:19.507Z,84.38
2022-09-03T14:15:19.505Z,78.75
2022-09-03T14:16:19.559Z,73.12
2022-09-03T14:17:19.480Z,73.12
2022-09-03T14:18:19.458Z,73.12
2022-09-03T14:19:19.476Z,95.62
2022-09-03T14:20:19.436Z,95.62
2022-09-03T14:21:19.429Z,129.38
2022-09-03T14:22:19.424Z,140.62
2022-09-03T14:23:19.419Z,146.25
2022-09-03T14:24:24.412Z,151.88
2022-09-03T14:25:19.391Z,151.88
2022-09-03T14:26:27.079Z,146.25
2022-09-03T14:27:20.366Z,146.25
2022-09-03T14:28:19.355Z,123.75
2022-09-03T14:29:19.350Z,106.88
2022-09-03T14:30:19.330Z,101.25
2022-09-03T14:31:19.367Z,101.25
2022-09-03T14:32:19.313Z,95.62
2022-09-03T14:33:19.316Z,95.62
2022-09-03T14:34:19.299Z,129.38
2022-09-03T14:35:24.292Z,157.50
2022-09-03T14:36:19.252Z,180.00
2022-09-03T14:37:19.250Z,196.88
2022-09-03T14:38:23.799Z,180.00
2022-09-03T14:39:20.280Z,185.62
2022-09-03T14:40:19.224Z,191.25
2022-09-03T14:41:19.195Z,157.50
2022-09-03T14:42:19.193Z,146.25
2022-09-03T14:43:19.289Z,151.88
2022-09-03T14:44:19.161Z,174.38
2022-09-03T14:45:19.151Z,157.50
2022-09-03T14:46:24.199Z,135.00
2022-09-03T14:47:19.139Z,123.75
2022-09-03T14:48:19.116Z,112.50
2022-09-03T14:49:19.106Z,101.25
2022-09-03T14:50:19.094Z,90.00
2022-09-03T14:51:19.964Z,84.38
2022-09-03T14:52:19.071Z,78.75
2022-09-03T14:53:19.071Z,90.00
2022-09-03T14:54:19.050Z,90.00
2022-09-03T14:55:19.043Z,90.00
2022-09-03T14:56:19.026Z,90.00
2022-09-03T14:57:24.058Z,90.00
2022-09-03T14:58:19.002Z,90.00
2022-09-03T14:59:18.998Z,90.00
2022-09-03T15:00:20.292Z,84.38
2022-09-03T15:01:19.005Z,84.38
2022-09-03T15:02:19.057Z,78.75
2022-09-03T15:03:18.959Z,78.75
2022-09-03T15:04:18.935Z,84.38
2022-09-03T15:05:18.930Z,84.38
2022-09-03T15:06:18.911Z,73.12
2022-09-03T15:07:19.904Z,61.88
2022-09-03T15:08:23.952Z,56.25
2022-09-03T15:09:18.879Z,50.62
2022-09-03T15:10:18.877Z,39.38
2022-09-03T15:11:18.870Z,39.38
2022-09-03T15:12:18.856Z,39.38
2022-09-03T15:13:18.857Z,39.38
2022-09-03T15:14:18.830Z,39.38
2022-09-03T15:15:18.818Z,39.38
2022-09-03T15:16:18.865Z,45.00
2022-09-03T15:17:18.791Z,45.00
2022-09-03T15:18:18.819Z,45.00
2022-09-03T15:19:23.790Z,45.00
2022-09-03T15:20:18.754Z,39.38
2022-09-03T15:21:18.744Z,33.75
2022-09-03T15:22:18.748Z,33.75
2022-09-03T15:23:18.882Z,28.12
2022-09-03T15:24:18.710Z,28.12
2022-09-03T15:25:18.876Z,22.50
2022-09-03T15:26:18.686Z,22.50
2022-09-03T15:27:18.680Z,22.50
2022-09-03T15:28:18.679Z,22.50
2022-09-03T15:29:18.653Z,22.50
2022-09-03T15:30:23.661Z,22.50
2022-09-03T15:31:18.683Z,28.12
2022-09-03T15:32:18.621Z,22.50
2022-09-03T15:33:18.625Z,22.50
2022-09-03T15:34:18.599Z,22.50
2022-09-03T15:35:18.590Z,22.50
2022-09-03T15:36:18.581Z,22.50
2022-09-03T15:37:18.568Z,28.12
2022-09-03T15:38:18.562Z,28.12
2022-09-03T15:39:18.553Z,28.12
2022-09-03T15:40:18.532Z,33.75
2022-09-03T15:41:23.549Z,33.75
2022-09-03T15:42:18.537Z,33.75
2022-09-03T15:43:18.516Z,39.38
2022-09-03T15:44:19.725Z,39.38
2022-09-03T15:45:18.492Z,39.38
2022-09-03T15:46:18.463Z,39.38
2022-09-03T15:47:18.479Z,39.38
2022-09-03T15:48:18.444Z,33.75
2022-09-03T15:49:18.435Z,33.75
2022-09-03T15:50:18.422Z,33.75
2022-09-03T15:51:18.427Z,28.12
2022-09-03T15:52:23.429Z,28.12
2022-09-03T15:53:18.387Z,28.12
2022-09-03T15:54:18.374Z,22.50
2022-09-03T15:55:18.368Z,22.50
2022-09-03T15:56:18.357Z,22.50
2022-09-03T15:57:18.366Z,22.50
2022-09-03T15:58:18.339Z,28.12
2022-09-03T15:59:18.334Z,28.12
2022-09-03T16:00:21.489Z,28.12
2022-09-03T16:01:18.353Z,28.12
2022-09-03T16:02:18.293Z,28.12
2022-09-03T16:03:24.375Z,28.12
2022-09-03T16:04:18.262Z,28.12
2022-09-03T16:05:18.251Z,28.12
2022-09-03T16:06:18.302Z,28.12
2022-09-03T16:07:18.238Z,28.12
2022-09-03T16:08:18.230Z,28.12
2022-09-03T16:09:18.214Z,22.50
2022-09-03T16:10:24.698Z,22.50
2022-09-03T16:11:19.182Z,22.50
2022-09-03T16:12:18.196Z,22.50
2022-09-03T16:13:18.159Z,22.50
2022-09-03T16:14:23.176Z,16.88
2022-09-03T16:15:18.136Z,16.88
2022-09-03T16:16:18.148Z,16.88
2022-09-03T16:17:18.113Z,16.88
2022-09-03T16:18:18.113Z,16.88
2022-09-03T16:19:18.091Z,16.88
2022-09-03T16:20:18.079Z,16.88
2022-09-03T16:21:18.076Z,16.88
2022-09-03T16:22:18.061Z,11.25
2022-09-03T16:23:18.064Z,11.25
2022-09-03T16:24:18.039Z,11.25
2022-09-03T16:25:23.046Z,11.25
2022-09-03T16:26:18.015Z,11.25
2022-09-03T16:27:18.002Z,11.25
2022-09-03T16:28:18.000Z,11.25
2022-09-03T16:29:17.980Z,11.25
2022-09-03T16:30:17.966Z,16.88
2022-09-03T16:31:17.989Z,16.88
2022-09-03T16:32:17.947Z,16.88
2022-09-03T16:33:17.944Z,16.88
2022-09-03T16:34:18.963Z,16.88
2022-09-03T16:35:17.913Z,16.88
2022-09-03T16:36:22.925Z,16.88
2022-09-03T16:37:17.891Z,16.88
2022-09-03T16:38:17.929Z,16.88
2022-09-03T16:39:17.999Z,16.88
2022-09-03T16:40:17.855Z,16.88
2022-09-03T16:41:17.843Z,16.88
2022-09-03T16:42:17.832Z,22.50
2022-09-03T16:43:39.517Z,22.50
2022-09-03T16:44:18.809Z,22.50
2022-09-03T16:45:17.798Z,22.50
2022-09-03T16:46:17.847Z,22.50